• Join FlightAware (Why Join?)
  • Login
  • US Flag 
11:08AM EST


 

Airport Tracker/Info


-or-


 

Live Flight TrackerFlight Track Log ✈ N56578 ✈ 24-Jun-2014 ✈ KAVP - KSMQ

Flight Track Log - Related Links

Times and Time Zones

All times are in EDT time to prevent confusion due to time zone crossing. See the N56578 flight status page for this flight to view local times or setup timezone preferences in your user account.

Time Position Orientation Groundspeed Altitude Reporting Facility
EDT Latitude Longitude Course Direction KTS MPH feet Rate Location/Type
11:33AM 40.9285 -75.1164 133° Southeast  Level FlightAware Approximate
11:34AM 40.9042 -75.0817 133° Southeast  Level FlightAware Approximate
11:35AM 40.8799 -75.0471 133° Southeast  Level FlightAware Approximate
11:36AM 40.8556 -75.0125 133° Southeast  Level FlightAware Approximate
11:37AM 40.8313 -74.9779 133° Southeast  Level FlightAware Approximate
11:38AM 40.8070 -74.9433 133° Southeast  Level FlightAware Approximate
11:39AM 40.7833 -74.9082 131° Southeast  Level FlightAware Approximate
11:40AM 40.7597 -74.8728 131° Southeast  Level FlightAware Approximate
11:41AM 40.7361 -74.8374 131° Southeast  Level FlightAware Approximate
11:42AM 40.7111 -74.8037 135° Southeast  Level FlightAware Approximate
11:43AM 40.6860 -74.7702 135° Southeast  Level FlightAware Approximate
11:44AM 40.6656 -74.7318 135° Southeast  Level FlightAware Approximate
11:45AM 40.6404 -74.6984 135° Southeast  Level FlightAware Approximate
11:46AM 40.6260 -74.6702 135° Southeast  Level Estimated
11:47AM 40.6260 -74.6702 164° South  Level Estimated
11:48AM 40.6260 -74.6702 135° Southeast  Level Estimated
11:49AM 40.6260 -74.6702 164° South  Level Estimated
11:50AM 40.6260 -74.6702 135° Southeast  Level Estimated
11:51AM 40.6260 -74.6702 164° South  Level Estimated
11:52AM 40.6260 -74.6702 135° Southeast  Level Estimated
11:53AM 40.6260 -74.6702 164° South  Level Estimated
11:54AM 40.6260 -74.6702 135° Southeast  Level Estimated
11:55AM 40.6260 -74.6702 164° South  Level Estimated
11:56AM 40.6260 -74.6702 135° Southeast  Level Estimated
11:57AM 40.6260 -74.6702 164° South  Level Estimated
11:58AM 40.6260 -74.6702 135° Southeast  Level Estimated
11:59AM 40.6260 -74.6702 164° South  Level Estimated
12:00PM 40.6260 -74.6702 135° Southeast  Level Estimated
12:01PM 40.6260 -74.6702 164° South  Level Estimated